sensor_id;sensor_type;location;lat;lon;timestamp;P1;durP1;ratioP1;P2;durP2;ratioP2
63016;SDS011;50274;45.640;11.756;2023-06-24T00:00:09;11.13;;;5.90;;
63016;SDS011;50274;45.640;11.756;2023-06-24T00:02:37;11.97;;;5.23;;
63016;SDS011;50274;45.640;11.756;2023-06-24T00:05:04;12.48;;;6.43;;
63016;SDS011;50274;45.640;11.756;2023-06-24T00:07:31;13.95;;;6.15;;
63016;SDS011;50274;45.640;11.756;2023-06-24T00:10:09;13.25;;;6.47;;
63016;SDS011;50274;45.640;11.756;2023-06-24T00:12:35;14.57;;;6.25;;
63016;SDS011;50274;45.640;11.756;2023-06-24T00:15:02;11.60;;;6.13;;
63016;SDS011;50274;45.640;11.756;2023-06-24T00:17:29;13.23;;;6.30;;
63016;SDS011;50274;45.640;11.756;2023-06-24T00:19:55;10.30;;;5.93;;
63016;SDS011;50274;45.640;11.756;2023-06-24T00:22:20;13.33;;;6.63;;
63016;SDS011;50274;45.640;11.756;2023-06-24T00:24:47;11.90;;;5.93;;
63016;SDS011;50274;45.640;11.756;2023-06-24T00:27:13;12.52;;;7.38;;
63016;SDS011;50274;45.640;11.756;2023-06-24T00:29:38;13.70;;;6.80;;
63016;SDS011;50274;45.640;11.756;2023-06-24T00:32:04;12.13;;;7.18;;
63016;SDS011;50274;45.640;11.756;2023-06-24T00:34:31;12.05;;;6.75;;
63016;SDS011;50274;45.640;11.756;2023-06-24T00:36:57;14.70;;;7.00;;
63016;SDS011;50274;45.640;11.756;2023-06-24T00:39:23;14.40;;;6.93;;
63016;SDS011;50274;45.640;11.756;2023-06-24T00:41:48;13.05;;;6.68;;
63016;SDS011;50274;45.640;11.756;2023-06-24T00:44:14;15.80;;;7.17;;
63016;SDS011;50274;45.640;11.756;2023-06-24T00:46:41;14.32;;;7.20;;
63016;SDS011;50274;45.640;11.756;2023-06-24T00:49:06;16.48;;;7.70;;
63016;SDS011;50274;45.640;11.756;2023-06-24T00:51:33;14.77;;;7.07;;
63016;SDS011;50274;45.640;11.756;2023-06-24T00:54:01;16.57;;;6.93;;
63016;SDS011;50274;45.640;11.756;2023-06-24T00:56:31;13.10;;;6.07;;
63016;SDS011;50274;45.640;11.756;2023-06-24T00:58:59;16.20;;;7.30;;
63016;SDS011;50274;45.640;11.756;2023-06-24T01:01:28;10.57;;;6.05;;
63016;SDS011;50274;45.640;11.756;2023-06-24T01:04:00;15.27;;;7.00;;
63016;SDS011;50274;45.640;11.756;2023-06-24T01:06:28;13.23;;;6.73;;
63016;SDS011;50274;45.640;11.756;2023-06-24T01:08:56;12.15;;;7.15;;
63016;SDS011;50274;45.640;11.756;2023-06-24T01:11:22;13.95;;;6.82;;
63016;SDS011;50274;45.640;11.756;2023-06-24T01:13:49;10.90;;;6.53;;
63016;SDS011;50274;45.640;11.756;2023-06-24T01:16:19;21.30;;;7.55;;
63016;SDS011;50274;45.640;11.756;2023-06-24T01:19:53;14.67;;;6.73;;
63016;SDS011;50274;45.640;11.756;2023-06-24T01:27:47;15.00;;;7.15;;
63016;SDS011;50274;45.640;11.756;2023-06-24T01:33:26;14.73;;;7.50;;
63016;SDS011;50274;45.640;11.756;2023-06-24T01:36:01;14.23;;;7.70;;
63016;SDS011;50274;45.640;11.756;2023-06-24T01:38:42;13.15;;;7.93;;
63016;SDS011;50274;45.640;11.756;2023-06-24T01:41:09;12.75;;;7.80;;
63016;SDS011;50274;45.640;11.756;2023-06-24T01:43:38;17.42;;;7.82;;
63016;SDS011;50274;45.640;11.756;2023-06-24T01:46:07;13.40;;;7.70;;
63016;SDS011;50274;45.640;11.756;2023-06-24T01:48:35;14.40;;;7.80;;
63016;SDS011;50274;45.640;11.756;2023-06-24T01:51:09;11.57;;;7.28;;
63016;SDS011;50274;45.640;11.756;2023-06-24T01:53:39;15.50;;;7.95;;
63016;SDS011;50274;45.640;11.756;2023-06-24T01:56:10;11.23;;;7.20;;
63016;SDS011;50274;45.640;11.756;2023-06-24T01:58:39;13.87;;;7.90;;
63016;SDS011;50274;45.640;11.756;2023-06-24T02:01:07;11.65;;;6.43;;
63016;SDS011;50274;45.640;11.756;2023-06-24T02:03:34;12.57;;;7.65;;
63016;SDS011;50274;45.640;11.756;2023-06-24T02:06:01;11.70;;;7.25;;
63016;SDS011;50274;45.640;11.756;2023-06-24T02:08:30;10.30;;;6.95;;
63016;SDS011;50274;45.640;11.756;2023-06-24T02:10:59;13.37;;;8.73;;
63016;SDS011;50274;45.640;11.756;2023-06-24T02:13:26;16.92;;;8.73;;
63016;SDS011;50274;45.640;11.756;2023-06-24T02:15:56;14.90;;;7.88;;
63016;SDS011;50274;45.640;11.756;2023-06-24T02:18:24;15.48;;;8.73;;
63016;SDS011;50274;45.640;11.756;2023-06-24T02:20:52;11.55;;;8.00;;
63016;SDS011;50274;45.640;11.756;2023-06-24T02:23:20;15.47;;;7.57;;
63016;SDS011;50274;45.640;11.756;2023-06-24T02:25:47;11.32;;;7.30;;
63016;SDS011;50274;45.640;11.756;2023-06-24T02:28:15;12.55;;;7.32;;
63016;SDS011;50274;45.640;11.756;2023-06-24T02:30:43;13.20;;;7.88;;
63016;SDS011;50274;45.640;11.756;2023-06-24T02:33:10;11.80;;;7.82;;
63016;SDS011;50274;45.640;11.756;2023-06-24T02:35:37;12.53;;;6.90;;
63016;SDS011;50274;45.640;11.756;2023-06-24T02:38:03;12.60;;;7.05;;
63016;SDS011;50274;45.640;11.756;2023-06-24T02:40:29;13.70;;;7.28;;
63016;SDS011;50274;45.640;11.756;2023-06-24T02:42:56;12.63;;;7.93;;
63016;SDS011;50274;45.640;11.756;2023-06-24T02:45:22;12.60;;;7.40;;
63016;SDS011;50274;45.640;11.756;2023-06-24T02:47:48;14.17;;;7.70;;
63016;SDS011;50274;45.640;11.756;2023-06-24T02:50:15;11.90;;;8.00;;
63016;SDS011;50274;45.640;11.756;2023-06-24T02:52:42;16.27;;;8.32;;
63016;SDS011;50274;45.640;11.756;2023-06-24T02:55:08;17.80;;;8.25;;
63016;SDS011;50274;45.640;11.756;2023-06-24T02:57:35;9.97;;;6.60;;
63016;SDS011;50274;45.640;11.756;2023-06-24T03:00:02;11.82;;;7.47;;
63016;SDS011;50274;45.640;11.756;2023-06-24T03:02:37;11.13;;;7.75;;
63016;SDS011;50274;45.640;11.756;2023-06-24T03:05:04;10.00;;;7.75;;
63016;SDS011;50274;45.640;11.756;2023-06-24T03:07:31;12.00;;;8.18;;
63016;SDS011;50274;45.640;11.756;2023-06-24T03:10:01;11.77;;;7.30;;
63016;SDS011;50274;45.640;11.756;2023-06-24T03:12:28;11.93;;;7.97;;
63016;SDS011;50274;45.640;11.756;2023-06-24T03:14:54;14.05;;;7.80;;
63016;SDS011;50274;45.640;11.756;2023-06-24T03:17:20;13.93;;;7.60;;
63016;SDS011;50274;45.640;11.756;2023-06-24T03:19:46;13.25;;;7.18;;
63016;SDS011;50274;45.640;11.756;2023-06-24T03:22:12;12.67;;;6.93;;
63016;SDS011;50274;45.640;11.756;2023-06-24T03:24:37;13.00;;;6.75;;
63016;SDS011;50274;45.640;11.756;2023-06-24T03:27:03;11.70;;;6.87;;
63016;SDS011;50274;45.640;11.756;2023-06-24T03:29:29;11.80;;;5.95;;
63016;SDS011;50274;45.640;11.756;2023-06-24T03:31:55;15.45;;;8.25;;
63016;SDS011;50274;45.640;11.756;2023-06-24T03:34:21;13.27;;;7.03;;
63016;SDS011;50274;45.640;11.756;2023-06-24T03:36:47;13.55;;;6.72;;
63016;SDS011;50274;45.640;11.756;2023-06-24T03:39:12;10.35;;;6.18;;
63016;SDS011;50274;45.640;11.756;2023-06-24T03:41:39;13.98;;;6.55;;
63016;SDS011;50274;45.640;11.756;2023-06-24T03:44:05;10.60;;;6.17;;
63016;SDS011;50274;45.640;11.756;2023-06-24T03:46:34;14.52;;;6.50;;
63016;SDS011;50274;45.640;11.756;2023-06-24T03:49:00;15.73;;;6.80;;
63016;SDS011;50274;45.640;11.756;2023-06-24T03:51:26;11.27;;;6.57;;
63016;SDS011;50274;45.640;11.756;2023-06-24T03:53:52;10.77;;;6.10;;
63016;SDS011;50274;45.640;11.756;2023-06-24T03:56:18;11.35;;;6.25;;
63016;SDS011;50274;45.640;11.756;2023-06-24T03:58:44;10.73;;;6.65;;
63016;SDS011;50274;45.640;11.756;2023-06-24T04:01:12;12.57;;;6.47;;
63016;SDS011;50274;45.640;11.756;2023-06-24T04:03:38;10.85;;;6.15;;
63016;SDS011;50274;45.640;11.756;2023-06-24T04:06:04;12.68;;;6.70;;
63016;SDS011;50274;45.640;11.756;2023-06-24T04:08:29;14.40;;;6.73;;
63016;SDS011;50274;45.640;11.756;2023-06-24T04:10:56;14.07;;;7.00;;
63016;SDS011;50274;45.640;11.756;2023-06-24T04:13:24;11.10;;;6.68;;
63016;SDS011;50274;45.640;11.756;2023-06-24T04:15:50;11.30;;;5.90;;
63016;SDS011;50274;45.640;11.756;2023-06-24T04:18:15;12.83;;;6.43;;
63016;SDS011;50274;45.640;11.756;2023-06-24T04:20:41;12.95;;;6.50;;
63016;SDS011;50274;45.640;11.756;2023-06-24T04:23:07;12.90;;;6.38;;
63016;SDS011;50274;45.640;11.756;2023-06-24T04:25:35;13.90;;;6.53;;
63016;SDS011;50274;45.640;11.756;2023-06-24T04:28:02;12.80;;;5.80;;
63016;SDS011;50274;45.640;11.756;2023-06-24T04:30:30;14.73;;;5.97;;
63016;SDS011;50274;45.640;11.756;2023-06-24T04:32:56;10.75;;;5.93;;
63016;SDS011;50274;45.640;11.756;2023-06-24T04:35:22;11.90;;;6.43;;
63016;SDS011;50274;45.640;11.756;2023-06-24T04:37:47;12.83;;;5.77;;
63016;SDS011;50274;45.640;11.756;2023-06-24T04:40:17;12.60;;;6.30;;
63016;SDS011;50274;45.640;11.756;2023-06-24T04:42:44;11.75;;;6.80;;
63016;SDS011;50274;45.640;11.756;2023-06-24T04:45:10;14.45;;;5.90;;
63016;SDS011;50274;45.640;11.756;2023-06-24T04:47:36;12.27;;;6.78;;
63016;SDS011;50274;45.640;11.756;2023-06-24T04:50:02;14.77;;;6.80;;
63016;SDS011;50274;45.640;11.756;2023-06-24T04:52:28;14.65;;;6.97;;
63016;SDS011;50274;45.640;11.756;2023-06-24T04:54:55;15.30;;;6.22;;
63016;SDS011;50274;45.640;11.756;2023-06-24T04:57:24;13.23;;;6.53;;
63016;SDS011;50274;45.640;11.756;2023-06-24T04:59:55;12.40;;;6.60;;
63016;SDS011;50274;45.640;11.756;2023-06-24T05:02:21;16.40;;;6.95;;
63016;SDS011;50274;45.640;11.756;2023-06-24T05:04:47;16.90;;;6.78;;
63016;SDS011;50274;45.640;11.756;2023-06-24T05:07:13;14.18;;;5.97;;
63016;SDS011;50274;45.640;11.756;2023-06-24T05:09:39;13.63;;;6.87;;
63016;SDS011;50274;45.640;11.756;2023-06-24T05:12:05;11.65;;;5.93;;
63016;SDS011;50274;45.640;11.756;2023-06-24T05:14:33;12.35;;;5.13;;
63016;SDS011;50274;45.640;11.756;2023-06-24T05:17:00;14.80;;;5.30;;
63016;SDS011;50274;45.640;11.756;2023-06-24T05:19:26;11.25;;;5.55;;
63016;SDS011;50274;45.640;11.756;2023-06-24T05:21:52;9.18;;;4.78;;
63016;SDS011;50274;45.640;11.756;2023-06-24T05:24:18;11.32;;;4.78;;
63016;SDS011;50274;45.640;11.756;2023-06-24T05:26:50;10.00;;;4.80;;
63016;SDS011;50274;45.640;11.756;2023-06-24T05:29:17;8.55;;;4.28;;
63016;SDS011;50274;45.640;11.756;2023-06-24T05:31:43;8.80;;;4.40;;
63016;SDS011;50274;45.640;11.756;2023-06-24T05:34:09;9.98;;;4.45;;
63016;SDS011;50274;45.640;11.756;2023-06-24T05:36:35;9.47;;;4.10;;
63016;SDS011;50274;45.640;11.756;2023-06-24T05:39:01;9.52;;;4.53;;
63016;SDS011;50274;45.640;11.756;2023-06-24T05:41:30;7.25;;;4.38;;
63016;SDS011;50274;45.640;11.756;2023-06-24T05:44:02;8.18;;;4.28;;
63016;SDS011;50274;45.640;11.756;2023-06-24T05:46:29;7.97;;;4.77;;
63016;SDS011;50274;45.640;11.756;2023-06-24T05:48:56;9.50;;;4.68;;
63016;SDS011;50274;45.640;11.756;2023-06-24T05:51:22;8.32;;;4.72;;
63016;SDS011;50274;45.640;11.756;2023-06-24T05:53:48;8.90;;;5.47;;
63016;SDS011;50274;45.640;11.756;2023-06-24T05:56:14;8.60;;;5.05;;
63016;SDS011;50274;45.640;11.756;2023-06-24T05:58:40;9.63;;;5.20;;
63016;SDS011;50274;45.640;11.756;2023-06-24T06:01:11;7.88;;;4.75;;
63016;SDS011;50274;45.640;11.756;2023-06-24T06:03:37;9.90;;;4.43;;
63016;SDS011;50274;45.640;11.756;2023-06-24T06:06:03;8.27;;;4.87;;
63016;SDS011;50274;45.640;11.756;2023-06-24T06:08:29;7.53;;;4.18;;
63016;SDS011;50274;45.640;11.756;2023-06-24T06:10:55;11.10;;;5.25;;
63016;SDS011;50274;45.640;11.756;2023-06-24T06:13:21;8.45;;;5.07;;
63016;SDS011;50274;45.640;11.756;2023-06-24T06:15:47;10.03;;;5.43;;
63016;SDS011;50274;45.640;11.756;2023-06-24T06:18:13;11.85;;;5.60;;
63016;SDS011;50274;45.640;11.756;2023-06-24T06:20:38;10.10;;;4.87;;
63016;SDS011;50274;45.640;11.756;2023-06-24T06:23:04;9.20;;;5.37;;
63016;SDS011;50274;45.640;11.756;2023-06-24T06:25:30;9.20;;;4.78;;
63016;SDS011;50274;45.640;11.756;2023-06-24T06:27:56;10.10;;;4.83;;
63016;SDS011;50274;45.640;11.756;2023-06-24T06:30:23;9.75;;;4.80;;
63016;SDS011;50274;45.640;11.756;2023-06-24T06:32:49;9.15;;;4.63;;
63016;SDS011;50274;45.640;11.756;2023-06-24T06:35:14;8.00;;;4.78;;
63016;SDS011;50274;45.640;11.756;2023-06-24T06:37:40;8.37;;;4.70;;
63016;SDS011;50274;45.640;11.756;2023-06-24T06:40:06;8.80;;;4.72;;
63016;SDS011;50274;45.640;11.756;2023-06-24T06:42:33;9.57;;;4.80;;
63016;SDS011;50274;45.640;11.756;2023-06-24T06:44:58;10.03;;;5.20;;
63016;SDS011;50274;45.640;11.756;2023-06-24T06:47:24;9.02;;;4.90;;
63016;SDS011;50274;45.640;11.756;2023-06-24T06:49:50;9.65;;;4.30;;
63016;SDS011;50274;45.640;11.756;2023-06-24T06:52:16;12.73;;;5.23;;
63016;SDS011;50274;45.640;11.756;2023-06-24T06:54:42;9.47;;;4.50;;
63016;SDS011;50274;45.640;11.756;2023-06-24T06:57:08;7.32;;;4.18;;
63016;SDS011;50274;45.640;11.756;2023-06-24T06:59:34;9.30;;;4.67;;
63016;SDS011;50274;45.640;11.756;2023-06-24T07:02:00;8.00;;;4.60;;
63016;SDS011;50274;45.640;11.756;2023-06-24T07:04:25;8.18;;;4.25;;
63016;SDS011;50274;45.640;11.756;2023-06-24T07:06:51;8.60;;;3.90;;
63016;SDS011;50274;45.640;11.756;2023-06-24T07:09:17;9.70;;;4.10;;
63016;SDS011;50274;45.640;11.756;2023-06-24T07:11:43;7.97;;;3.72;;
63016;SDS011;50274;45.640;11.756;2023-06-24T07:14:09;9.05;;;4.63;;
63016;SDS011;50274;45.640;11.756;2023-06-24T07:16:35;7.33;;;3.77;;
63016;SDS011;50274;45.640;11.756;2023-06-24T07:19:01;7.28;;;4.00;;
63016;SDS011;50274;45.640;11.756;2023-06-24T07:21:29;8.02;;;3.90;;
63016;SDS011;50274;45.640;11.756;2023-06-24T07:23:55;6.83;;;3.43;;
63016;SDS011;50274;45.640;11.756;2023-06-24T07:26:21;7.72;;;3.20;;
63016;SDS011;50274;45.640;11.756;2023-06-24T07:28:47;7.88;;;3.50;;
63016;SDS011;50274;45.640;11.756;2023-06-24T07:31:13;6.13;;;2.93;;
63016;SDS011;50274;45.640;11.756;2023-06-24T07:33:38;7.25;;;2.90;;
63016;SDS011;50274;45.640;11.756;2023-06-24T07:36:04;7.47;;;2.57;;
63016;SDS011;50274;45.640;11.756;2023-06-24T07:38:30;6.07;;;2.83;;
63016;SDS011;50274;45.640;11.756;2023-06-24T07:40:56;7.07;;;2.75;;
63016;SDS011;50274;45.640;11.756;2023-06-24T07:43:22;7.53;;;2.83;;
63016;SDS011;50274;45.640;11.756;2023-06-24T07:45:48;6.32;;;2.30;;
63016;SDS011;50274;45.640;11.756;2023-06-24T07:48:14;5.70;;;2.50;;
63016;SDS011;50274;45.640;11.756;2023-06-24T07:50:40;6.20;;;2.70;;
63016;SDS011;50274;45.640;11.756;2023-06-24T07:53:05;5.53;;;2.55;;
63016;SDS011;50274;45.640;11.756;2023-06-24T07:55:31;5.85;;;2.50;;
63016;SDS011;50274;45.640;11.756;2023-06-24T07:57:57;6.23;;;2.37;;
63016;SDS011;50274;45.640;11.756;2023-06-24T08:00:28;5.57;;;2.70;;
63016;SDS011;50274;45.640;11.756;2023-06-24T08:02:53;6.97;;;2.67;;
63016;SDS011;50274;45.640;11.756;2023-06-24T08:05:20;5.30;;;2.58;;
63016;SDS011;50274;45.640;11.756;2023-06-24T08:07:46;7.32;;;2.70;;
63016;SDS011;50274;45.640;11.756;2023-06-24T08:10:12;8.43;;;3.00;;
63016;SDS011;50274;45.640;11.756;2023-06-24T08:12:41;5.85;;;2.72;;
63016;SDS011;50274;45.640;11.756;2023-06-24T08:15:07;7.20;;;2.90;;
63016;SDS011;50274;45.640;11.756;2023-06-24T08:17:33;5.22;;;2.65;;
63016;SDS011;50274;45.640;11.756;2023-06-24T08:19:59;5.90;;;2.63;;
63016;SDS011;50274;45.640;11.756;2023-06-24T08:22:25;4.85;;;2.50;;
63016;SDS011;50274;45.640;11.756;2023-06-24T08:24:51;5.93;;;2.65;;
63016;SDS011;50274;45.640;11.756;2023-06-24T08:27:17;5.87;;;2.33;;
63016;SDS011;50274;45.640;11.756;2023-06-24T08:29:43;5.53;;;2.50;;
63016;SDS011;50274;45.640;11.756;2023-06-24T08:32:09;6.40;;;2.70;;
63016;SDS011;50274;45.640;11.756;2023-06-24T08:34:37;6.90;;;2.87;;
63016;SDS011;50274;45.640;11.756;2023-06-24T08:37:03;5.57;;;2.40;;
63016;SDS011;50274;45.640;11.756;2023-06-24T08:39:29;5.32;;;2.40;;
63016;SDS011;50274;45.640;11.756;2023-06-24T08:41:55;5.35;;;2.50;;
63016;SDS011;50274;45.640;11.756;2023-06-24T08:44:21;7.37;;;2.50;;
63016;SDS011;50274;45.640;11.756;2023-06-24T08:46:47;6.45;;;2.45;;
63016;SDS011;50274;45.640;11.756;2023-06-24T08:51:53;5.47;;;2.45;;
63016;SDS011;50274;45.640;11.756;2023-06-24T08:54:25;7.13;;;2.63;;
63016;SDS011;50274;45.640;11.756;2023-06-24T08:56:52;5.47;;;2.60;;
63016;SDS011;50274;45.640;11.756;2023-06-24T08:59:18;5.65;;;2.42;;
63016;SDS011;50274;45.640;11.756;2023-06-24T09:01:48;6.25;;;2.67;;
63016;SDS011;50274;45.640;11.756;2023-06-24T09:04:14;6.63;;;2.35;;
63016;SDS011;50274;45.640;11.756;2023-06-24T09:06:41;5.50;;;2.45;;
63016;SDS011;50274;45.640;11.756;2023-06-24T09:09:16;5.70;;;2.20;;
63016;SDS011;50274;45.640;11.756;2023-06-24T09:11:53;5.78;;;2.40;;
63016;SDS011;50274;45.640;11.756;2023-06-24T09:14:26;5.20;;;2.50;;
63016;SDS011;50274;45.640;11.756;2023-06-24T09:16:58;8.30;;;2.60;;
63016;SDS011;50274;45.640;11.756;2023-06-24T09:19:29;5.43;;;2.35;;
63016;SDS011;50274;45.640;11.756;2023-06-24T09:21:55;6.20;;;2.50;;
63016;SDS011;50274;45.640;11.756;2023-06-24T09:24:35;5.95;;;2.40;;
63016;SDS011;50274;45.640;11.756;2023-06-24T09:27:03;4.97;;;2.25;;
63016;SDS011;50274;45.640;11.756;2023-06-24T09:29:33;5.63;;;2.33;;
63016;SDS011;50274;45.640;11.756;2023-06-24T09:32:09;5.30;;;2.58;;
63016;SDS011;50274;45.640;11.756;2023-06-24T09:34:38;7.13;;;2.60;;
63016;SDS011;50274;45.640;11.756;2023-06-24T09:37:04;5.28;;;2.70;;
63016;SDS011;50274;45.640;11.756;2023-06-24T09:39:34;5.13;;;2.25;;
63016;SDS011;50274;45.640;11.756;2023-06-24T09:42:05;6.07;;;2.95;;
63016;SDS011;50274;45.640;11.756;2023-06-24T09:44:34;5.95;;;2.70;;
63016;SDS011;50274;45.640;11.756;2023-06-24T09:47:03;6.60;;;2.67;;
63016;SDS011;50274;45.640;11.756;2023-06-24T09:49:29;5.13;;;2.30;;
63016;SDS011;50274;45.640;11.756;2023-06-24T09:51:56;7.20;;;2.70;;
63016;SDS011;50274;45.640;11.756;2023-06-24T09:54:26;7.82;;;2.50;;
63016;SDS011;50274;45.640;11.756;2023-06-24T09:56:53;5.60;;;2.47;;
63016;SDS011;50274;45.640;11.756;2023-06-24T09:59:23;5.35;;;2.70;;
63016;SDS011;50274;45.640;11.756;2023-06-24T10:01:52;5.32;;;2.47;;
63016;SDS011;50274;45.640;11.756;2023-06-24T10:04:29;6.95;;;2.70;;
63016;SDS011;50274;45.640;11.756;2023-06-24T10:07:04;5.28;;;2.50;;
63016;SDS011;50274;45.640;11.756;2023-06-24T10:09:30;6.27;;;2.50;;
63016;SDS011;50274;45.640;11.756;2023-06-24T10:11:55;4.57;;;2.22;;
63016;SDS011;50274;45.640;11.756;2023-06-24T10:14:21;6.05;;;2.47;;
63016;SDS011;50274;45.640;11.756;2023-06-24T10:16:47;5.63;;;2.80;;
63016;SDS011;50274;45.640;11.756;2023-06-24T10:19:19;5.97;;;2.42;;
63016;SDS011;50274;45.640;11.756;2023-06-24T10:27:04;5.43;;;2.90;;
63016;SDS011;50274;45.640;11.756;2023-06-24T10:29:52;6.75;;;2.47;;
63016;SDS011;50274;45.640;11.756;2023-06-24T10:32:22;5.85;;;2.72;;
63016;SDS011;50274;45.640;11.756;2023-06-24T10:34:55;5.45;;;2.47;;
63016;SDS011;50274;45.640;11.756;2023-06-24T10:37:25;6.38;;;2.70;;
63016;SDS011;50274;45.640;11.756;2023-06-24T10:39:55;5.60;;;2.80;;
63016;SDS011;50274;45.640;11.756;2023-06-24T10:42:26;4.78;;;2.53;;
63016;SDS011;50274;45.640;11.756;2023-06-24T10:47:38;5.97;;;2.50;;
63016;SDS011;50274;45.640;11.756;2023-06-24T10:50:04;6.05;;;2.30;;
63016;SDS011;50274;45.640;11.756;2023-06-24T10:52:31;6.40;;;2.50;;
63016;SDS011;50274;45.640;11.756;2023-06-24T10:54:58;6.38;;;2.40;;
63016;SDS011;50274;45.640;11.756;2023-06-24T10:57:27;5.78;;;2.55;;
63016;SDS011;50274;45.640;11.756;2023-06-24T10:59:54;5.45;;;2.50;;
63016;SDS011;50274;45.640;11.756;2023-06-24T11:02:21;5.45;;;2.60;;
63016;SDS011;50274;45.640;11.756;2023-06-24T11:04:52;5.07;;;2.40;;
63016;SDS011;50274;45.640;11.756;2023-06-24T11:07:23;5.93;;;2.47;;
63016;SDS011;50274;45.640;11.756;2023-06-24T11:09:50;5.53;;;2.38;;
63016;SDS011;50274;45.640;11.756;2023-06-24T11:12:17;6.13;;;2.78;;
63016;SDS011;50274;45.640;11.756;2023-06-24T11:14:44;5.20;;;2.80;;
63016;SDS011;50274;45.640;11.756;2023-06-24T11:17:10;6.17;;;2.27;;
63016;SDS011;50274;45.640;11.756;2023-06-24T11:19:36;5.22;;;2.70;;
63016;SDS011;50274;45.640;11.756;2023-06-24T11:22:04;6.15;;;2.50;;
63016;SDS011;50274;45.640;11.756;2023-06-24T11:24:31;7.65;;;2.60;;
63016;SDS011;50274;45.640;11.756;2023-06-24T11:26:58;5.10;;;2.40;;
63016;SDS011;50274;45.640;11.756;2023-06-24T11:29:24;5.45;;;2.40;;
63016;SDS011;50274;45.640;11.756;2023-06-24T11:31:53;6.13;;;2.60;;
63016;SDS011;50274;45.640;11.756;2023-06-24T11:34:29;5.30;;;2.45;;
63016;SDS011;50274;45.640;11.756;2023-06-24T11:36:55;8.77;;;2.53;;
63016;SDS011;50274;45.640;11.756;2023-06-24T11:39:24;5.27;;;2.70;;
63016;SDS011;50274;45.640;11.756;2023-06-24T11:41:52;5.82;;;2.47;;
63016;SDS011;50274;45.640;11.756;2023-06-24T11:44:19;6.88;;;2.40;;
63016;SDS011;50274;45.640;11.756;2023-06-24T11:46:46;5.22;;;2.22;;
63016;SDS011;50274;45.640;11.756;2023-06-24T11:49:12;6.00;;;2.22;;
63016;SDS011;50274;45.640;11.756;2023-06-24T11:51:45;5.13;;;2.07;;
63016;SDS011;50274;45.640;11.756;2023-06-24T11:54:14;6.05;;;2.25;;
63016;SDS011;50274;45.640;11.756;2023-06-24T11:56:49;5.90;;;2.33;;
63016;SDS011;50274;45.640;11.756;2023-06-24T11:59:20;4.50;;;2.00;;
63016;SDS011;50274;45.640;11.756;2023-06-24T12:01:53;5.60;;;2.60;;
63016;SDS011;50274;45.640;11.756;2023-06-24T12:04:21;5.97;;;1.97;;
63016;SDS011;50274;45.640;11.756;2023-06-24T12:06:52;5.72;;;2.60;;
63016;SDS011;50274;45.640;11.756;2023-06-24T12:09:18;4.95;;;2.30;;
63016;SDS011;50274;45.640;11.756;2023-06-24T12:11:44;6.23;;;2.50;;
63016;SDS011;50274;45.640;11.756;2023-06-24T12:14:10;6.03;;;2.38;;
63016;SDS011;50274;45.640;11.756;2023-06-24T12:16:36;5.95;;;2.60;;
63016;SDS011;50274;45.640;11.756;2023-06-24T12:19:03;7.47;;;2.38;;
63016;SDS011;50274;45.640;11.756;2023-06-24T12:21:29;6.50;;;2.60;;
63016;SDS011;50274;45.640;11.756;2023-06-24T12:23:55;5.45;;;2.40;;
63016;SDS011;50274;45.640;11.756;2023-06-24T12:26:20;5.57;;;2.42;;
63016;SDS011;50274;45.640;11.756;2023-06-24T12:28:46;6.27;;;2.70;;
63016;SDS011;50274;45.640;11.756;2023-06-24T12:31:12;7.30;;;2.20;;
63016;SDS011;50274;45.640;11.756;2023-06-24T12:33:38;5.73;;;2.60;;
63016;SDS011;50274;45.640;11.756;2023-06-24T12:36:04;5.55;;;2.50;;
63016;SDS011;50274;45.640;11.756;2023-06-24T12:38:30;5.03;;;2.40;;
63016;SDS011;50274;45.640;11.756;2023-06-24T12:40:56;5.25;;;2.20;;
63016;SDS011;50274;45.640;11.756;2023-06-24T12:43:22;5.40;;;2.40;;
63016;SDS011;50274;45.640;11.756;2023-06-24T12:45:49;6.05;;;2.40;;
63016;SDS011;50274;45.640;11.756;2023-06-24T12:48:16;5.05;;;2.13;;
63016;SDS011;50274;45.640;11.756;2023-06-24T12:50:42;5.53;;;2.10;;
63016;SDS011;50274;45.640;11.756;2023-06-24T12:53:08;5.28;;;2.03;;
63016;SDS011;50274;45.640;11.756;2023-06-24T12:55:39;5.03;;;1.70;;
63016;SDS011;50274;45.640;11.756;2023-06-24T12:58:04;5.38;;;1.90;;
63016;SDS011;50274;45.640;11.756;2023-06-24T13:00:30;4.78;;;1.77;;
63016;SDS011;50274;45.640;11.756;2023-06-24T13:02:56;4.97;;;1.90;;
63016;SDS011;50274;45.640;11.756;2023-06-24T13:05:22;4.68;;;1.85;;
63016;SDS011;50274;45.640;11.756;2023-06-24T13:07:48;4.70;;;1.88;;
63016;SDS011;50274;45.640;11.756;2023-06-24T13:10:14;4.40;;;2.10;;
63016;SDS011;50274;45.640;11.756;2023-06-24T13:12:40;5.30;;;1.70;;
63016;SDS011;50274;45.640;11.756;2023-06-24T13:15:06;4.45;;;1.73;;
63016;SDS011;50274;45.640;11.756;2023-06-24T13:17:34;3.90;;;1.50;;
63016;SDS011;50274;45.640;11.756;2023-06-24T13:20:00;4.07;;;1.60;;
63016;SDS011;50274;45.640;11.756;2023-06-24T13:22:29;4.35;;;1.80;;
63016;SDS011;50274;45.640;11.756;2023-06-24T13:24:55;4.07;;;1.30;;
63016;SDS011;50274;45.640;11.756;2023-06-24T13:27:21;4.10;;;1.63;;
63016;SDS011;50274;45.640;11.756;2023-06-24T13:29:47;3.93;;;1.40;;
63016;SDS011;50274;45.640;11.756;2023-06-24T13:32:13;4.57;;;1.60;;
63016;SDS011;50274;45.640;11.756;2023-06-24T13:34:39;4.03;;;1.55;;
63016;SDS011;50274;45.640;11.756;2023-06-24T13:37:05;3.40;;;1.40;;
63016;SDS011;50274;45.640;11.756;2023-06-24T13:39:31;3.25;;;1.17;;
63016;SDS011;50274;45.640;11.756;2023-06-24T13:41:57;4.78;;;1.38;;
63016;SDS011;50274;45.640;11.756;2023-06-24T13:44:23;4.30;;;1.60;;
63016;SDS011;50274;45.640;11.756;2023-06-24T13:46:49;4.30;;;1.35;;
63016;SDS011;50274;45.640;11.756;2023-06-24T13:49:18;5.15;;;1.73;;
63016;SDS011;50274;45.640;11.756;2023-06-24T13:51:44;4.35;;;1.30;;
63016;SDS011;50274;45.640;11.756;2023-06-24T13:54:10;3.88;;;1.52;;
63016;SDS011;50274;45.640;11.756;2023-06-24T13:56:37;4.17;;;1.53;;
63016;SDS011;50274;45.640;11.756;2023-06-24T13:59:03;4.38;;;1.70;;
63016;SDS011;50274;45.640;11.756;2023-06-24T14:01:29;4.10;;;1.50;;
63016;SDS011;50274;45.640;11.756;2023-06-24T14:03:56;3.70;;;1.38;;
63016;SDS011;50274;45.640;11.756;2023-06-24T14:06:22;4.10;;;1.60;;
63016;SDS011;50274;45.640;11.756;2023-06-24T14:08:49;4.47;;;1.33;;
63016;SDS011;50274;45.640;11.756;2023-06-24T14:11:16;4.93;;;1.58;;
63016;SDS011;50274;45.640;11.756;2023-06-24T14:13:42;4.70;;;1.38;;
63016;SDS011;50274;45.640;11.756;2023-06-24T14:16:09;3.85;;;1.60;;
63016;SDS011;50274;45.640;11.756;2023-06-24T14:18:35;5.15;;;1.50;;
63016;SDS011;50274;45.640;11.756;2023-06-24T14:21:02;4.93;;;1.80;;
63016;SDS011;50274;45.640;11.756;2023-06-24T14:23:29;3.70;;;1.50;;
63016;SDS011;50274;45.640;11.756;2023-06-24T14:25:56;4.35;;;1.58;;
63016;SDS011;50274;45.640;11.756;2023-06-24T14:28:22;4.15;;;1.40;;
63016;SDS011;50274;45.640;11.756;2023-06-24T14:30:48;4.47;;;1.17;;
63016;SDS011;50274;45.640;11.756;2023-06-24T14:33:14;4.23;;;1.50;;
63016;SDS011;50274;45.640;11.756;2023-06-24T14:35:40;6.32;;;1.60;;
63016;SDS011;50274;45.640;11.756;2023-06-24T14:38:07;5.28;;;1.40;;
63016;SDS011;50274;45.640;11.756;2023-06-24T14:40:33;4.88;;;1.30;;
63016;SDS011;50274;45.640;11.756;2023-06-24T14:42:59;4.50;;;1.03;;
63016;SDS011;50274;45.640;11.756;2023-06-24T14:45:25;4.28;;;1.13;;
63016;SDS011;50274;45.640;11.756;2023-06-24T14:47:51;4.55;;;1.08;;